Terminal Aerodrome Forecast
Issued by NWS

Home | Current Version | Previous Version | Text Only | Print | Product List | Glossary On
Versions: 1 2 3 4 5 6 7 8 9 10 11 12 13 14 15
160
FTUS46 KMTR 251746
TAFSTS
TAF
KSTS 251746Z 2518/2618 32004KT P6SM BKN050
     FM252200 08005KT P6SM -SHRA FEW030 BKN040 OVC080
     FM260400 33004KT P6SM FEW030 SCT050 BKN100
     FM260900 VRB03KT P6SM FEW200
     FM261300 00000KT 1/2SM FG OVC002
     FM261600 VRB03KT 6SM BR FEW002 SCT150=

USA.gov is the U.S. government's official web portal to all federal, state and local government web resources and services.